createdAt,value
2023-05-24T00:02:36.755Z,3.27
2023-05-24T00:05:22.201Z,3.30
2023-05-24T00:08:07.984Z,2.53
2023-05-24T00:10:53.482Z,2.97
2023-05-24T00:13:38.768Z,2.80
2023-05-24T00:16:24.577Z,2.50
2023-05-24T00:19:09.953Z,2.73
2023-05-24T00:21:55.366Z,3.13
2023-05-24T00:24:40.738Z,2.67
2023-05-24T00:27:25.961Z,3.30
2023-05-24T00:30:12.099Z,3.00
2023-05-24T00:32:57.541Z,2.90
2023-05-24T00:35:43.199Z,2.83
2023-05-24T00:38:28.883Z,3.07
2023-05-24T00:41:14.685Z,3.13
2023-05-24T00:44:00.341Z,3.10
2023-05-24T00:46:47.660Z,2.87
2023-05-24T00:49:34.909Z,3.00
2023-05-24T00:52:20.998Z,3.23
2023-05-24T00:55:08.746Z,3.50
2023-05-24T00:57:55.340Z,3.27
2023-05-24T01:00:43.366Z,3.60
2023-05-24T01:03:29.370Z,3.03
2023-05-24T01:06:14.947Z,3.03
2023-05-24T01:09:07.017Z,2.97
2023-05-24T01:11:58.772Z,3.17
2023-05-24T01:15:14.983Z,3.00
2023-05-24T01:18:07.367Z,2.80
2023-05-24T01:21:06.238Z,3.20
2023-05-24T01:24:23.844Z,3.70
2023-05-24T01:27:13.065Z,3.20
2023-05-24T01:29:59.993Z,3.03
2023-05-24T01:32:46.281Z,3.47
2023-05-24T01:35:31.872Z,3.00
2023-05-24T01:38:17.338Z,3.30
2023-05-24T01:41:18.079Z,3.13
2023-05-24T01:44:14.659Z,3.03
2023-05-24T01:47:28.842Z,3.53
2023-05-24T01:50:34.529Z,2.77
2023-05-24T01:53:23.177Z,2.87
2023-05-24T01:56:11.275Z,3.00
2023-05-24T01:58:57.906Z,2.60
2023-05-24T02:01:43.559Z,2.60
2023-05-24T02:04:29.363Z,2.50
2023-05-24T02:07:14.936Z,3.13
2023-05-24T02:10:00.462Z,2.93
2023-05-24T02:12:46.051Z,2.37
2023-05-24T02:15:31.916Z,2.57
2023-05-24T02:18:17.348Z,2.63
2023-05-24T02:21:03.168Z,2.70
2023-05-24T02:23:48.977Z,2.67
2023-05-24T02:26:34.409Z,2.67
2023-05-24T02:29:19.958Z,2.93
2023-05-24T02:32:05.658Z,2.63
2023-05-24T02:34:50.943Z,2.60
2023-05-24T02:37:36.459Z,2.70
2023-05-24T02:40:22.053Z,2.40
2023-05-24T02:43:07.177Z,2.70
2023-05-24T02:45:52.400Z,2.63
2023-05-24T02:48:37.823Z,2.53
2023-05-24T02:51:23.198Z,2.67
2023-05-24T02:54:09.020Z,2.77
2023-05-24T02:56:54.197Z,2.40
2023-05-24T02:59:39.761Z,2.70
2023-05-24T03:02:25.488Z,2.40
2023-05-24T03:05:11.288Z,2.17
2023-05-24T03:07:57.445Z,2.03
2023-05-24T03:10:43.919Z,2.53
2023-05-24T03:13:30.699Z,2.50
2023-05-24T03:16:16.428Z,3.00
2023-05-24T03:19:02.256Z,2.60
2023-05-24T03:21:47.960Z,2.10
2023-05-24T03:24:33.139Z,2.40
2023-05-24T03:27:18.870Z,2.60
2023-05-24T03:30:05.409Z,3.07
2023-05-24T03:32:55.646Z,2.80
2023-05-24T03:35:41.177Z,2.77
2023-05-24T03:38:27.729Z,2.50
2023-05-24T03:41:13.254Z,2.60
2023-05-24T03:43:59.463Z,2.87
2023-05-24T03:46:46.681Z,2.87
2023-05-24T03:49:32.017Z,3.50
2023-05-24T03:52:17.590Z,2.80
2023-05-24T03:55:02.782Z,2.47
2023-05-24T03:57:48.005Z,2.63
2023-05-24T04:00:33.819Z,2.40
2023-05-24T04:03:20.361Z,2.47
2023-05-24T04:06:07.013Z,2.30
2023-05-24T04:08:52.588Z,2.50
2023-05-24T04:11:37.972Z,2.97
2023-05-24T04:14:23.459Z,2.40
2023-05-24T04:17:09.144Z,2.97
2023-05-24T04:19:55.577Z,3.13
2023-05-24T04:22:41.483Z,2.57
2023-05-24T04:25:26.971Z,2.50
2023-05-24T04:28:13.216Z,2.30
2023-05-24T04:30:58.362Z,2.53
2023-05-24T04:33:44.051Z,2.50
2023-05-24T04:36:29.284Z,2.70
2023-05-24T04:39:14.400Z,2.20
2023-05-24T04:41:59.643Z,2.53
2023-05-24T04:44:45.053Z,2.20
2023-05-24T04:47:30.903Z,2.63
2023-05-24T04:50:16.635Z,2.70
2023-05-24T04:53:02.189Z,2.58
2023-05-24T04:55:48.319Z,2.80
2023-05-24T04:58:33.661Z,2.50
2023-05-24T05:01:20.148Z,2.85
2023-05-24T05:04:06.205Z,2.70
2023-05-24T05:06:51.898Z,3.10
2023-05-24T05:09:37.378Z,2.13
2023-05-24T05:12:22.964Z,2.55
2023-05-24T05:15:09.265Z,2.03
2023-05-24T05:17:55.189Z,2.42
2023-05-24T05:20:42.086Z,2.78
2023-05-24T05:23:28.053Z,2.75
2023-05-24T05:26:13.713Z,2.40
2023-05-24T05:28:58.813Z,2.72
2023-05-24T05:31:44.139Z,2.80
2023-05-24T05:34:29.600Z,2.50
2023-05-24T05:37:14.877Z,2.93
2023-05-24T05:39:59.999Z,2.70
2023-05-24T05:42:45.227Z,3.05
2023-05-24T05:45:31.121Z,3.33
2023-05-24T05:48:16.392Z,3.30
2023-05-24T05:51:02.018Z,3.45
2023-05-24T05:53:47.347Z,3.03
2023-05-24T05:56:32.587Z,2.80
2023-05-24T05:59:18.181Z,2.63
2023-05-24T06:02:04.680Z,3.47
2023-05-24T06:04:50.407Z,3.00
2023-05-24T06:07:35.496Z,3.20
2023-05-24T06:10:20.887Z,2.78
2023-05-24T06:13:06.584Z,3.42
2023-05-24T06:15:52.037Z,2.95
2023-05-24T06:18:37.663Z,3.10
2023-05-24T06:21:22.606Z,3.42
2023-05-24T06:24:08.349Z,3.15
2023-05-24T06:26:53.919Z,3.70
2023-05-24T06:29:39.423Z,3.33
2023-05-24T06:32:24.913Z,3.17
2023-05-24T06:35:10.631Z,3.33
2023-05-24T06:37:56.024Z,3.50
2023-05-24T06:40:41.430Z,3.10
2023-05-24T06:43:27.120Z,3.03
2023-05-24T06:46:12.852Z,3.10
2023-05-24T06:48:58.328Z,3.80
2023-05-24T06:51:45.080Z,3.00
2023-05-24T06:54:30.503Z,3.20
2023-05-24T06:57:15.759Z,3.77
2023-05-24T07:00:01.042Z,3.60
2023-05-24T07:02:46.713Z,4.20
2023-05-24T07:05:33.333Z,3.57
2023-05-24T07:08:18.772Z,3.20
2023-05-24T07:11:03.981Z,3.73
2023-05-24T07:13:49.135Z,3.67
2023-05-24T07:16:34.915Z,3.50
2023-05-24T07:19:20.846Z,3.30
2023-05-24T07:22:06.220Z,3.70
2023-05-24T07:24:51.753Z,4.32
2023-05-24T07:27:37.187Z,3.30
2023-05-24T07:30:46.624Z,3.60
2023-05-24T07:33:27.972Z,3.38
2023-05-24T07:36:14.031Z,3.97
2023-05-24T07:38:59.188Z,3.83
2023-05-24T07:41:44.957Z,4.05
2023-05-24T07:44:30.188Z,3.38
2023-05-24T07:47:15.564Z,3.53
2023-05-24T07:50:00.854Z,3.60
2023-05-24T07:52:46.343Z,3.95
2023-05-24T07:55:31.992Z,3.22
2023-05-24T07:58:17.359Z,3.45
2023-05-24T08:01:02.501Z,3.70
2023-05-24T08:03:48.142Z,3.65
2023-05-24T08:06:33.595Z,2.90
2023-05-24T08:09:19.156Z,3.65
2023-05-24T08:12:06.649Z,3.72
2023-05-24T08:14:52.759Z,3.83
2023-05-24T08:17:40.205Z,3.75
2023-05-24T08:20:26.071Z,3.80
2023-05-24T08:23:11.603Z,3.40
2023-05-24T08:25:58.113Z,3.75
2023-05-24T08:28:43.783Z,3.70
2023-05-24T08:31:29.545Z,3.38
2023-05-24T08:34:15.307Z,3.53
2023-05-24T08:37:00.386Z,3.90
2023-05-24T08:39:46.443Z,3.50
2023-05-24T08:42:31.884Z,3.15
2023-05-24T08:45:18.314Z,3.33
2023-05-24T08:48:06.401Z,3.80
2023-05-24T08:50:53.333Z,3.30
2023-05-24T08:53:39.778Z,3.35
2023-05-24T08:56:26.283Z,3.15
2023-05-24T08:59:12.525Z,3.63
2023-05-24T09:01:57.833Z,3.22
2023-05-24T09:04:46.794Z,2.75
2023-05-24T09:07:33.287Z,3.15
2023-05-24T09:10:20.732Z,3.22
2023-05-24T09:13:07.692Z,2.90
2023-05-24T09:15:53.929Z,3.13
2023-05-24T09:18:40.829Z,2.90
2023-05-24T09:21:27.419Z,3.08
2023-05-24T09:24:12.716Z,3.10
2023-05-24T09:27:05.806Z,3.35
2023-05-24T09:29:51.281Z,2.67
2023-05-24T09:32:36.917Z,3.30
2023-05-24T09:35:22.279Z,3.05
2023-05-24T09:38:17.258Z,2.88
2023-05-24T09:41:07.916Z,2.80
2023-05-24T09:43:53.146Z,2.72
2023-05-24T09:46:38.870Z,3.40
2023-05-24T09:49:24.185Z,3.10
2023-05-24T09:52:14.245Z,3.40
2023-05-24T09:55:00.351Z,2.80
2023-05-24T09:57:50.916Z,2.80
2023-05-24T10:00:41.681Z,2.83
2023-05-24T10:03:27.184Z,2.90
2023-05-24T10:06:13.311Z,3.00
2023-05-24T10:08:59.213Z,3.10
2023-05-24T10:11:45.689Z,2.80
2023-05-24T10:14:36.901Z,3.95
2023-05-24T10:17:22.415Z,3.20
2023-05-24T10:20:08.147Z,2.38
2023-05-24T10:22:59.517Z,2.60
2023-05-24T10:25:52.134Z,3.08
2023-05-24T10:28:46.888Z,3.13
2023-05-24T10:31:40.439Z,2.65
2023-05-24T10:34:26.553Z,3.40
2023-05-24T10:37:12.213Z,2.45
2023-05-24T10:39:59.192Z,3.13
2023-05-24T10:42:44.664Z,3.28
2023-05-24T10:45:33.403Z,3.13
2023-05-24T10:48:24.654Z,2.90
2023-05-24T10:51:34.787Z,2.80
2023-05-24T10:54:25.242Z,3.15
2023-05-24T10:57:10.506Z,3.05
2023-05-24T10:59:56.640Z,3.58
2023-05-24T11:02:42.332Z,3.00
2023-05-24T11:05:48.560Z,2.63
2023-05-24T11:08:35.822Z,3.05
2023-05-24T11:11:28.674Z,3.45
2023-05-24T11:14:23.384Z,2.90
2023-05-24T11:17:08.908Z,3.28
2023-05-24T11:19:55.792Z,3.10
2023-05-24T11:22:41.824Z,2.90
2023-05-24T11:25:27.698Z,2.92
2023-05-24T11:28:13.114Z,3.53
2023-05-24T11:31:08.674Z,3.13
2023-05-24T11:33:53.937Z,2.80
2023-05-24T11:36:39.496Z,2.67
2023-05-24T11:39:29.529Z,3.17
2023-05-24T11:42:15.134Z,3.13
2023-05-24T11:45:00.677Z,3.45
2023-05-24T11:47:46.002Z,2.75
2023-05-24T11:50:42.251Z,2.60
2023-05-24T11:53:34.835Z,2.67
2023-05-24T11:56:20.322Z,3.20
2023-05-24T11:59:05.879Z,3.00
2023-05-24T12:01:58.003Z,2.95
2023-05-24T12:04:43.224Z,3.15
2023-05-24T12:07:29.600Z,3.03
2023-05-24T12:10:16.019Z,3.00
2023-05-24T12:13:03.710Z,3.13
2023-05-24T12:15:53.276Z,2.85
2023-05-24T12:18:48.425Z,2.75
2023-05-24T12:21:41.324Z,2.70
2023-05-24T12:24:27.685Z,2.75
2023-05-24T12:27:12.984Z,2.83
2023-05-24T12:30:06.437Z,2.70
2023-05-24T12:32:52.038Z,2.70
2023-05-24T12:35:40.572Z,2.70
2023-05-24T12:38:26.193Z,3.03
2023-05-24T12:41:14.113Z,2.72
2023-05-24T12:43:59.856Z,2.92
2023-05-24T12:46:45.050Z,3.13
2023-05-24T12:49:31.197Z,2.50
2023-05-24T12:52:17.760Z,2.63
2023-05-24T12:55:03.277Z,2.50
2023-05-24T12:57:48.582Z,2.85
2023-05-24T13:00:33.925Z,2.90
2023-05-24T13:03:19.291Z,3.20
2023-05-24T13:06:04.991Z,2.53
2023-05-24T13:08:50.357Z,2.42
2023-05-24T13:11:36.351Z,2.17
2023-05-24T13:14:21.707Z,2.40
2023-05-24T13:17:07.388Z,2.22
2023-05-24T13:19:52.842Z,2.55
2023-05-24T13:22:39.391Z,2.65
2023-05-24T13:25:24.925Z,2.60
2023-05-24T13:28:10.146Z,2.30
2023-05-24T13:30:55.705Z,2.60
2023-05-24T13:33:43.621Z,2.58
2023-05-24T13:36:28.993Z,2.80
2023-05-24T13:39:16.546Z,2.60
2023-05-24T13:42:02.742Z,2.47
2023-05-24T13:44:48.010Z,2.75
2023-05-24T13:47:39.875Z,2.60
2023-05-24T13:50:26.359Z,2.38
2023-05-24T13:53:12.201Z,2.30
2023-05-24T13:55:57.903Z,2.63
2023-05-24T13:58:43.105Z,3.00
2023-05-24T14:01:28.887Z,2.58
2023-05-24T14:04:14.529Z,2.28
2023-05-24T14:07:00.199Z,2.40
2023-05-24T14:09:46.799Z,2.80
2023-05-24T14:12:33.181Z,2.60
2023-05-24T14:15:18.444Z,2.45
2023-05-24T14:18:03.997Z,2.70
2023-05-24T14:20:49.130Z,2.53
2023-05-24T14:23:34.650Z,2.38
2023-05-24T14:26:21.208Z,2.85
2023-05-24T14:29:06.482Z,2.55
2023-05-24T14:31:52.184Z,2.70
2023-05-24T14:34:38.031Z,2.60
2023-05-24T14:37:23.353Z,2.80
2023-05-24T14:40:11.094Z,2.53
2023-05-24T14:42:58.271Z,2.63
2023-05-24T14:45:44.149Z,2.50
2023-05-24T14:48:29.758Z,2.60
2023-05-24T14:51:16.438Z,2.30
2023-05-24T14:54:02.010Z,2.78
2023-05-24T14:56:47.307Z,2.70
2023-05-24T14:59:32.522Z,2.42
2023-05-24T15:02:19.664Z,2.33
2023-05-24T15:05:05.421Z,2.33
2023-05-24T15:07:50.909Z,2.60
2023-05-24T15:10:36.790Z,2.60
2023-05-24T15:13:23.146Z,2.70
2023-05-24T15:16:09.817Z,2.53
2023-05-24T15:18:55.347Z,2.75
2023-05-24T15:21:40.467Z,2.30
2023-05-24T15:24:26.014Z,2.50
2023-05-24T15:27:11.721Z,2.60
2023-05-24T15:29:58.341Z,2.60
2023-05-24T15:32:43.866Z,2.17
2023-05-24T15:35:29.605Z,2.35
2023-05-24T15:38:15.040Z,2.45
2023-05-24T15:41:00.376Z,2.22
2023-05-24T15:43:46.075Z,2.67
2023-05-24T15:46:32.020Z,3.20
2023-05-24T15:49:17.931Z,2.40
2023-05-24T15:52:04.981Z,2.20
2023-05-24T15:54:51.028Z,2.30
2023-05-24T15:57:36.704Z,2.05
2023-05-24T16:00:22.344Z,2.38
2023-05-24T16:03:08.144Z,2.30
2023-05-24T16:05:53.901Z,2.28
2023-05-24T16:08:39.321Z,2.65
2023-05-24T16:11:25.046Z,2.47
2023-05-24T16:14:10.588Z,2.72
2023-05-24T16:16:58.572Z,2.22
2023-05-24T16:19:44.976Z,2.58
2023-05-24T16:22:30.549Z,2.30
2023-05-24T16:25:15.961Z,2.00
2023-05-24T16:28:01.478Z,2.20
2023-05-24T16:30:47.031Z,2.22
2023-05-24T16:33:32.614Z,2.53
2023-05-24T16:36:17.860Z,2.58
2023-05-24T16:39:03.130Z,2.42
2023-05-24T16:41:48.874Z,2.38
2023-05-24T16:44:34.320Z,2.40
2023-05-24T16:47:20.244Z,2.17
2023-05-24T16:50:06.361Z,2.28
2023-05-24T16:52:52.297Z,2.40
2023-05-24T16:55:37.654Z,2.10
2023-05-24T16:58:24.725Z,2.30
2023-05-24T17:01:10.229Z,1.92
2023-05-24T17:03:56.169Z,1.98
2023-05-24T17:06:41.730Z,2.20
2023-05-24T17:09:27.202Z,2.00
2023-05-24T17:12:12.412Z,2.45
2023-05-24T17:14:58.797Z,2.10
2023-05-24T17:17:44.450Z,2.00
2023-05-24T17:20:30.304Z,1.80
2023-05-24T17:23:15.669Z,2.10
2023-05-24T17:26:01.385Z,1.83
2023-05-24T17:28:46.708Z,1.98
2023-05-24T17:31:32.276Z,2.10
2023-05-24T17:34:18.086Z,1.75
2023-05-24T17:37:03.494Z,1.90
2023-05-24T17:39:48.807Z,2.00
2023-05-24T17:42:34.095Z,2.10
2023-05-24T17:45:19.387Z,1.70
2023-05-24T17:48:05.132Z,1.88
2023-05-24T17:50:50.697Z,1.92
2023-05-24T17:53:37.546Z,2.00
2023-05-24T17:56:22.616Z,1.95
2023-05-24T17:59:08.286Z,2.30
2023-05-24T18:01:53.662Z,2.40
2023-05-24T18:04:39.112Z,2.25
2023-05-24T18:07:24.782Z,1.95
2023-05-24T18:10:10.806Z,2.20
2023-05-24T18:12:56.247Z,1.85
2023-05-24T18:15:42.326Z,2.13
2023-05-24T18:18:28.485Z,1.88
2023-05-24T18:21:13.779Z,2.03
2023-05-24T18:23:59.304Z,2.00
2023-05-24T18:26:47.234Z,1.90
2023-05-24T18:29:32.647Z,2.17
2023-05-24T18:32:18.382Z,2.13
2023-05-24T18:35:03.856Z,2.40
2023-05-24T18:37:49.811Z,1.80
2023-05-24T18:40:35.128Z,2.10
2023-05-24T18:43:20.779Z,1.90
2023-05-24T18:46:07.624Z,1.88
2023-05-24T18:48:53.586Z,1.73
2023-05-24T18:51:39.519Z,2.00
2023-05-24T18:54:25.631Z,2.25
2023-05-24T18:57:11.329Z,1.95
2023-05-24T18:59:56.822Z,2.25
2023-05-24T19:02:42.164Z,1.80
2023-05-24T19:05:28.385Z,1.85
2023-05-24T19:08:13.803Z,1.90
2023-05-24T19:10:59.511Z,1.88
2023-05-24T19:13:44.998Z,2.83
2023-05-24T19:16:31.713Z,1.85
2023-05-24T19:19:17.211Z,2.10
2023-05-24T19:22:02.838Z,2.13
2023-05-24T19:24:48.162Z,1.73
2023-05-24T19:27:36.252Z,1.88
2023-05-24T19:30:24.293Z,1.90
2023-05-24T19:33:09.904Z,2.63
2023-05-24T19:35:55.806Z,2.25
2023-05-24T19:38:41.237Z,5.15
2023-05-24T19:41:26.855Z,3.67
2023-05-24T19:44:12.116Z,3.30
2023-05-24T19:46:57.758Z,2.60
2023-05-24T19:49:43.427Z,2.88
2023-05-24T19:52:28.745Z,2.60
2023-05-24T19:55:14.156Z,2.42
2023-05-24T19:57:59.473Z,2.17
2023-05-24T20:00:45.046Z,2.55
2023-05-24T20:03:30.957Z,2.70
2023-05-24T20:06:16.923Z,2.53
2023-05-24T20:09:02.504Z,2.60
2023-05-24T20:11:48.931Z,2.42
2023-05-24T20:14:34.246Z,2.25
2023-05-24T20:17:20.136Z,2.30
2023-05-24T20:20:06.315Z,2.30
2023-05-24T20:22:52.101Z,2.50
2023-05-24T20:25:37.529Z,2.50
2023-05-24T20:28:30.759Z,2.45
2023-05-24T20:31:17.342Z,2.20
2023-05-24T20:34:03.146Z,2.00
2023-05-24T20:36:48.226Z,2.22
2023-05-24T20:39:33.873Z,2.00
2023-05-24T20:42:19.582Z,1.98
2023-05-24T20:45:05.690Z,2.17
2023-05-24T20:47:51.208Z,2.22
2023-05-24T20:50:36.927Z,1.85
2023-05-24T20:53:22.428Z,2.13
2023-05-24T20:56:07.839Z,2.20
2023-05-24T20:58:53.380Z,1.90
2023-05-24T21:01:39.085Z,2.08
2023-05-24T21:04:24.751Z,2.22
2023-05-24T21:07:10.171Z,2.45
2023-05-24T21:09:55.745Z,2.10
2023-05-24T21:12:41.294Z,2.08
2023-05-24T21:15:26.861Z,1.90
2023-05-24T21:18:12.372Z,2.22
2023-05-24T21:20:57.797Z,1.95
2023-05-24T21:23:43.281Z,2.00
2023-05-24T21:26:28.684Z,2.22
2023-05-24T21:29:14.120Z,2.10
2023-05-24T21:31:59.546Z,2.70
2023-05-24T21:34:45.117Z,2.25
2023-05-24T21:37:30.957Z,2.40
2023-05-24T21:40:16.603Z,2.08
2023-05-24T21:43:02.134Z,2.30
2023-05-24T21:45:47.618Z,2.30
2023-05-24T21:48:33.213Z,2.10
2023-05-24T21:51:18.822Z,2.03
2023-05-24T21:54:04.441Z,2.00
2023-05-24T21:56:49.821Z,2.08
2023-05-24T21:59:36.067Z,2.22
2023-05-24T22:02:22.070Z,2.20
2023-05-24T22:05:07.866Z,2.33
2023-05-24T22:07:53.227Z,2.40
2023-05-24T22:10:38.646Z,2.10
2023-05-24T22:13:24.222Z,2.10
2023-05-24T22:16:09.512Z,1.90
2023-05-24T22:18:55.772Z,2.25
2023-05-24T22:21:41.401Z,2.10
2023-05-24T22:24:27.270Z,1.98
2023-05-24T22:27:13.304Z,2.10
2023-05-24T22:29:58.761Z,2.22
2023-05-24T22:32:44.465Z,2.22
2023-05-24T22:35:30.196Z,2.00
2023-05-24T22:38:15.923Z,1.77
2023-05-24T22:41:01.631Z,2.30
2023-05-24T22:43:46.931Z,2.17
2023-05-24T22:46:32.680Z,2.17
2023-05-24T22:49:18.191Z,1.80
2023-05-24T22:52:03.571Z,2.13
2023-05-24T22:54:48.741Z,2.00
2023-05-24T22:57:34.330Z,2.20
2023-05-24T23:00:20.403Z,2.70
2023-05-24T23:03:07.853Z,2.13
2023-05-24T23:05:53.249Z,2.10
2023-05-24T23:08:39.253Z,2.60
2023-05-24T23:11:24.934Z,2.10
2023-05-24T23:14:10.665Z,2.20
2023-05-24T23:16:56.972Z,2.50
2023-05-24T23:19:43.076Z,2.37
2023-05-24T23:22:28.528Z,2.60
2023-05-24T23:25:13.948Z,2.50
2023-05-24T23:28:00.555Z,2.60
2023-05-24T23:30:46.378Z,2.27
2023-05-24T23:33:31.720Z,2.00
2023-05-24T23:36:17.645Z,2.17
2023-05-24T23:39:02.843Z,2.40
2023-05-24T23:41:48.243Z,2.53
2023-05-24T23:44:33.375Z,2.57
2023-05-24T23:47:18.860Z,2.83
2023-05-24T23:50:04.857Z,2.50
2023-05-24T23:52:50.718Z,2.40
2023-05-24T23:55:36.077Z,2.23
2023-05-24T23:58:21.760Z,2.23
